sensor_id;sensor_type;location;lat;lon;timestamp;P1;durP1;ratioP1;P2;durP2;ratioP2
42124;SDS011;27787;44.594;11.046;2024-02-28T00:00:28;18.77;;;9.75;;
42124;SDS011;27787;44.594;11.046;2024-02-28T00:03:13;18.38;;;10.30;;
42124;SDS011;27787;44.594;11.046;2024-02-28T00:05:57;21.13;;;10.07;;
42124;SDS011;27787;44.594;11.046;2024-02-28T00:08:41;21.40;;;9.68;;
42124;SDS011;27787;44.594;11.046;2024-02-28T00:11:26;18.70;;;10.10;;
42124;SDS011;27787;44.594;11.046;2024-02-28T00:14:11;19.13;;;10.38;;
42124;SDS011;27787;44.594;11.046;2024-02-28T00:16:55;20.00;;;10.68;;
42124;SDS011;27787;44.594;11.046;2024-02-28T00:19:40;17.40;;;9.48;;
42124;SDS011;27787;44.594;11.046;2024-02-28T00:22:24;20.55;;;10.77;;
42124;SDS011;27787;44.594;11.046;2024-02-28T00:25:09;18.52;;;10.48;;
42124;SDS011;27787;44.594;11.046;2024-02-28T00:27:55;20.25;;;10.63;;
42124;SDS011;27787;44.594;11.046;2024-02-28T00:30:39;17.73;;;9.88;;
42124;SDS011;27787;44.594;11.046;2024-02-28T00:33:24;18.95;;;9.93;;
42124;SDS011;27787;44.594;11.046;2024-02-28T00:36:09;20.33;;;10.18;;
42124;SDS011;27787;44.594;11.046;2024-02-28T00:38:53;21.20;;;10.93;;
42124;SDS011;27787;44.594;11.046;2024-02-28T00:41:38;18.00;;;9.98;;
42124;SDS011;27787;44.594;11.046;2024-02-28T00:44:22;19.63;;;10.60;;
42124;SDS011;27787;44.594;11.046;2024-02-28T00:47:07;20.40;;;10.20;;
42124;SDS011;27787;44.594;11.046;2024-02-28T00:49:51;17.80;;;9.68;;
42124;SDS011;27787;44.594;11.046;2024-02-28T00:52:35;19.25;;;10.07;;
42124;SDS011;27787;44.594;11.046;2024-02-28T00:55:20;21.65;;;10.85;;
42124;SDS011;27787;44.594;11.046;2024-02-28T00:58:07;20.15;;;10.48;;
42124;SDS011;27787;44.594;11.046;2024-02-28T01:00:51;20.58;;;10.98;;
42124;SDS011;27787;44.594;11.046;2024-02-28T01:03:35;23.48;;;10.65;;
42124;SDS011;27787;44.594;11.046;2024-02-28T01:06:19;22.88;;;10.95;;
42124;SDS011;27787;44.594;11.046;2024-02-28T01:09:04;17.52;;;9.93;;
42124;SDS011;27787;44.594;11.046;2024-02-28T01:11:48;18.85;;;10.52;;
42124;SDS011;27787;44.594;11.046;2024-02-28T01:14:33;22.02;;;10.82;;
42124;SDS011;27787;44.594;11.046;2024-02-28T01:17:17;22.67;;;10.77;;
42124;SDS011;27787;44.594;11.046;2024-02-28T01:20:01;22.05;;;11.02;;
42124;SDS011;27787;44.594;11.046;2024-02-28T01:22:46;20.02;;;10.93;;
42124;SDS011;27787;44.594;11.046;2024-02-28T01:25:31;21.25;;;10.02;;
42124;SDS011;27787;44.594;11.046;2024-02-28T01:28:16;17.50;;;10.57;;
42124;SDS011;27787;44.594;11.046;2024-02-28T01:31:00;21.63;;;10.25;;
42124;SDS011;27787;44.594;11.046;2024-02-28T01:33:45;17.50;;;10.45;;
42124;SDS011;27787;44.594;11.046;2024-02-28T01:36:29;17.80;;;9.68;;
42124;SDS011;27787;44.594;11.046;2024-02-28T01:39:13;20.67;;;10.60;;
42124;SDS011;27787;44.594;11.046;2024-02-28T01:41:57;32.25;;;10.98;;
42124;SDS011;27787;44.594;11.046;2024-02-28T01:44:43;21.00;;;10.85;;
42124;SDS011;27787;44.594;11.046;2024-02-28T01:47:29;23.17;;;11.88;;
42124;SDS011;27787;44.594;11.046;2024-02-28T01:50:15;27.73;;;11.00;;
42124;SDS011;27787;44.594;11.046;2024-02-28T01:52:59;20.90;;;10.90;;
42124;SDS011;27787;44.594;11.046;2024-02-28T01:55:45;20.40;;;11.02;;
42124;SDS011;27787;44.594;11.046;2024-02-28T01:58:29;21.05;;;10.57;;
42124;SDS011;27787;44.594;11.046;2024-02-28T02:01:14;29.58;;;12.10;;
42124;SDS011;27787;44.594;11.046;2024-02-28T02:04:03;22.77;;;11.25;;
42124;SDS011;27787;44.594;11.046;2024-02-28T02:06:48;20.90;;;10.40;;
42124;SDS011;27787;44.594;11.046;2024-02-28T02:09:33;22.65;;;10.88;;
42124;SDS011;27787;44.594;11.046;2024-02-28T02:12:18;22.52;;;10.98;;
42124;SDS011;27787;44.594;11.046;2024-02-28T02:15:02;22.98;;;10.43;;
42124;SDS011;27787;44.594;11.046;2024-02-28T02:17:47;27.55;;;13.05;;
42124;SDS011;27787;44.594;11.046;2024-02-28T02:20:32;24.95;;;11.48;;
42124;SDS011;27787;44.594;11.046;2024-02-28T02:23:19;21.30;;;10.35;;
42124;SDS011;27787;44.594;11.046;2024-02-28T02:26:03;22.60;;;11.32;;
42124;SDS011;27787;44.594;11.046;2024-02-28T02:28:47;23.60;;;12.70;;
42124;SDS011;27787;44.594;11.046;2024-02-28T02:31:31;27.65;;;11.15;;
42124;SDS011;27787;44.594;11.046;2024-02-28T02:34:15;23.20;;;11.63;;
42124;SDS011;27787;44.594;11.046;2024-02-28T02:37:00;22.05;;;11.57;;
42124;SDS011;27787;44.594;11.046;2024-02-28T02:39:44;23.33;;;12.23;;
42124;SDS011;27787;44.594;11.046;2024-02-28T02:42:28;19.40;;;11.18;;
42124;SDS011;27787;44.594;11.046;2024-02-28T02:45:12;22.52;;;11.20;;
42124;SDS011;27787;44.594;11.046;2024-02-28T02:47:56;22.48;;;11.13;;
42124;SDS011;27787;44.594;11.046;2024-02-28T02:50:41;20.73;;;10.88;;
42124;SDS011;27787;44.594;11.046;2024-02-28T02:53:25;25.02;;;12.02;;
42124;SDS011;27787;44.594;11.046;2024-02-28T02:56:10;25.23;;;11.60;;
42124;SDS011;27787;44.594;11.046;2024-02-28T02:58:54;29.63;;;12.57;;
42124;SDS011;27787;44.594;11.046;2024-02-28T03:01:38;25.27;;;11.63;;
42124;SDS011;27787;44.594;11.046;2024-02-28T03:04:22;28.88;;;12.20;;
42124;SDS011;27787;44.594;11.046;2024-02-28T03:07:06;23.67;;;11.52;;
42124;SDS011;27787;44.594;11.046;2024-02-28T03:09:50;23.80;;;11.88;;
42124;SDS011;27787;44.594;11.046;2024-02-28T03:12:34;28.58;;;12.77;;
42124;SDS011;27787;44.594;11.046;2024-02-28T03:15:19;29.42;;;12.13;;
42124;SDS011;27787;44.594;11.046;2024-02-28T03:18:03;28.65;;;12.57;;
42124;SDS011;27787;44.594;11.046;2024-02-28T03:20:47;27.05;;;12.38;;
42124;SDS011;27787;44.594;11.046;2024-02-28T03:23:31;30.70;;;12.13;;
42124;SDS011;27787;44.594;11.046;2024-02-28T03:26:16;27.75;;;12.65;;
42124;SDS011;27787;44.594;11.046;2024-02-28T03:29:00;30.60;;;13.15;;
42124;SDS011;27787;44.594;11.046;2024-02-28T03:31:45;30.23;;;13.85;;
42124;SDS011;27787;44.594;11.046;2024-02-28T03:34:29;25.75;;;13.80;;
42124;SDS011;27787;44.594;11.046;2024-02-28T03:37:13;29.40;;;13.75;;
42124;SDS011;27787;44.594;11.046;2024-02-28T03:39:58;30.30;;;13.70;;
42124;SDS011;27787;44.594;11.046;2024-02-28T03:42:42;33.95;;;14.43;;
42124;SDS011;27787;44.594;11.046;2024-02-28T03:45:29;33.20;;;15.15;;
42124;SDS011;27787;44.594;11.046;2024-02-28T03:48:14;34.78;;;14.70;;
42124;SDS011;27787;44.594;11.046;2024-02-28T03:50:58;34.70;;;15.70;;
42124;SDS011;27787;44.594;11.046;2024-02-28T03:53:42;39.17;;;15.25;;
42124;SDS011;27787;44.594;11.046;2024-02-28T03:56:26;39.13;;;15.82;;
42124;SDS011;27787;44.594;11.046;2024-02-28T03:59:12;34.17;;;15.52;;
42124;SDS011;27787;44.594;11.046;2024-02-28T04:01:56;48.83;;;16.15;;
42124;SDS011;27787;44.594;11.046;2024-02-28T04:04:39;46.70;;;16.45;;
42124;SDS011;27787;44.594;11.046;2024-02-28T04:07:23;38.70;;;16.13;;
42124;SDS011;27787;44.594;11.046;2024-02-28T04:10:08;37.45;;;15.85;;
42124;SDS011;27787;44.594;11.046;2024-02-28T04:12:55;39.97;;;16.10;;
42124;SDS011;27787;44.594;11.046;2024-02-28T04:15:39;46.05;;;16.70;;
42124;SDS011;27787;44.594;11.046;2024-02-28T04:18:23;46.85;;;18.00;;
42124;SDS011;27787;44.594;11.046;2024-02-28T04:21:06;45.22;;;17.40;;
42124;SDS011;27787;44.594;11.046;2024-02-28T04:23:52;48.17;;;16.80;;
42124;SDS011;27787;44.594;11.046;2024-02-28T04:26:36;45.25;;;16.50;;
42124;SDS011;27787;44.594;11.046;2024-02-28T04:29:20;48.75;;;19.17;;
42124;SDS011;27787;44.594;11.046;2024-02-28T04:32:07;51.78;;;18.73;;
42124;SDS011;27787;44.594;11.046;2024-02-28T04:34:50;52.33;;;18.15;;
42124;SDS011;27787;44.594;11.046;2024-02-28T04:37:35;46.20;;;18.13;;
42124;SDS011;27787;44.594;11.046;2024-02-28T04:40:20;53.85;;;19.15;;
42124;SDS011;27787;44.594;11.046;2024-02-28T04:43:04;52.45;;;18.23;;
42124;SDS011;27787;44.594;11.046;2024-02-28T04:45:47;52.42;;;18.55;;
42124;SDS011;27787;44.594;11.046;2024-02-28T04:48:31;61.38;;;18.95;;
42124;SDS011;27787;44.594;11.046;2024-02-28T04:51:16;50.45;;;18.48;;
42124;SDS011;27787;44.594;11.046;2024-02-28T04:54:03;52.38;;;18.92;;
42124;SDS011;27787;44.594;11.046;2024-02-28T04:56:47;50.40;;;18.23;;
42124;SDS011;27787;44.594;11.046;2024-02-28T04:59:32;45.15;;;16.92;;
42124;SDS011;27787;44.594;11.046;2024-02-28T05:02:15;45.03;;;16.55;;
42124;SDS011;27787;44.594;11.046;2024-02-28T05:05:00;48.47;;;16.23;;
42124;SDS011;27787;44.594;11.046;2024-02-28T05:07:44;55.15;;;17.33;;
42124;SDS011;27787;44.594;11.046;2024-02-28T05:10:28;56.90;;;19.77;;
42124;SDS011;27787;44.594;11.046;2024-02-28T05:13:12;48.15;;;17.58;;
42124;SDS011;27787;44.594;11.046;2024-02-28T05:15:57;58.53;;;20.00;;
42124;SDS011;27787;44.594;11.046;2024-02-28T05:18:41;52.17;;;19.88;;
42124;SDS011;27787;44.594;11.046;2024-02-28T05:21:26;64.65;;;19.83;;
42124;SDS011;27787;44.594;11.046;2024-02-28T05:24:10;66.90;;;20.75;;
42124;SDS011;27787;44.594;11.046;2024-02-28T05:26:54;59.55;;;21.13;;
42124;SDS011;27787;44.594;11.046;2024-02-28T05:29:38;68.07;;;22.30;;
42124;SDS011;27787;44.594;11.046;2024-02-28T05:32:23;59.80;;;20.95;;
42124;SDS011;27787;44.594;11.046;2024-02-28T05:35:07;61.97;;;20.80;;
42124;SDS011;27787;44.594;11.046;2024-02-28T05:37:54;60.63;;;20.50;;
42124;SDS011;27787;44.594;11.046;2024-02-28T05:40:38;73.72;;;21.90;;
42124;SDS011;27787;44.594;11.046;2024-02-28T05:43:24;65.70;;;21.20;;
42124;SDS011;27787;44.594;11.046;2024-02-28T05:46:08;63.72;;;21.08;;
42124;SDS011;27787;44.594;11.046;2024-02-28T05:48:53;69.47;;;21.70;;
42124;SDS011;27787;44.594;11.046;2024-02-28T05:51:37;80.18;;;22.30;;
42124;SDS011;27787;44.594;11.046;2024-02-28T05:54:21;66.57;;;20.25;;
42124;SDS011;27787;44.594;11.046;2024-02-28T05:57:05;70.22;;;22.50;;
42124;SDS011;27787;44.594;11.046;2024-02-28T05:59:49;70.75;;;20.55;;
42124;SDS011;27787;44.594;11.046;2024-02-28T06:02:33;70.22;;;21.10;;
42124;SDS011;27787;44.594;11.046;2024-02-28T06:05:18;65.43;;;20.83;;
42124;SDS011;27787;44.594;11.046;2024-02-28T06:08:02;57.85;;;18.42;;
42124;SDS011;27787;44.594;11.046;2024-02-28T06:10:46;56.20;;;20.02;;
42124;SDS011;27787;44.594;11.046;2024-02-28T06:13:31;57.85;;;18.92;;
42124;SDS011;27787;44.594;11.046;2024-02-28T06:16:15;68.60;;;19.25;;
42124;SDS011;27787;44.594;11.046;2024-02-28T06:18:59;64.63;;;19.83;;
42124;SDS011;27787;44.594;11.046;2024-02-28T06:21:44;53.22;;;19.00;;
42124;SDS011;27787;44.594;11.046;2024-02-28T06:24:29;65.25;;;19.30;;
42124;SDS011;27787;44.594;11.046;2024-02-28T06:27:12;60.78;;;19.45;;
42124;SDS011;27787;44.594;11.046;2024-02-28T06:29:58;61.63;;;19.35;;
42124;SDS011;27787;44.594;11.046;2024-02-28T06:32:42;59.95;;;17.92;;
42124;SDS011;27787;44.594;11.046;2024-02-28T06:35:27;57.90;;;17.10;;
42124;SDS011;27787;44.594;11.046;2024-02-28T06:38:11;57.03;;;18.42;;
42124;SDS011;27787;44.594;11.046;2024-02-28T06:40:55;64.38;;;18.60;;
42124;SDS011;27787;44.594;11.046;2024-02-28T06:43:39;56.65;;;18.13;;
42124;SDS011;27787;44.594;11.046;2024-02-28T06:46:23;46.72;;;17.23;;
42124;SDS011;27787;44.594;11.046;2024-02-28T06:49:08;57.38;;;18.75;;
42124;SDS011;27787;44.594;11.046;2024-02-28T06:51:52;55.20;;;17.25;;
42124;SDS011;27787;44.594;11.046;2024-02-28T06:54:36;58.17;;;17.23;;
42124;SDS011;27787;44.594;11.046;2024-02-28T06:57:20;44.65;;;15.38;;
42124;SDS011;27787;44.594;11.046;2024-02-28T07:00:05;48.00;;;16.70;;
42124;SDS011;27787;44.594;11.046;2024-02-28T07:02:52;53.95;;;17.10;;
42124;SDS011;27787;44.594;11.046;2024-02-28T07:05:37;46.72;;;16.20;;
42124;SDS011;27787;44.594;11.046;2024-02-28T07:08:21;51.35;;;16.80;;
42124;SDS011;27787;44.594;11.046;2024-02-28T07:11:12;47.88;;;15.63;;
42124;SDS011;27787;44.594;11.046;2024-02-28T07:13:57;50.70;;;15.88;;
42124;SDS011;27787;44.594;11.046;2024-02-28T07:16:45;49.40;;;15.35;;
42124;SDS011;27787;44.594;11.046;2024-02-28T07:19:30;53.75;;;16.25;;
42124;SDS011;27787;44.594;11.046;2024-02-28T07:22:14;44.10;;;15.35;;
42124;SDS011;27787;44.594;11.046;2024-02-28T07:24:57;49.88;;;16.70;;
42124;SDS011;27787;44.594;11.046;2024-02-28T07:27:41;55.20;;;15.27;;
42124;SDS011;27787;44.594;11.046;2024-02-28T07:30:25;49.35;;;14.00;;
42124;SDS011;27787;44.594;11.046;2024-02-28T07:33:09;51.83;;;13.95;;
42124;SDS011;27787;44.594;11.046;2024-02-28T07:35:53;50.35;;;13.75;;
42124;SDS011;27787;44.594;11.046;2024-02-28T07:38:37;52.30;;;13.43;;
42124;SDS011;27787;44.594;11.046;2024-02-28T07:41:22;41.33;;;12.90;;
42124;SDS011;27787;44.594;11.046;2024-02-28T07:44:06;47.25;;;12.43;;
42124;SDS011;27787;44.594;11.046;2024-02-28T07:46:50;46.05;;;13.70;;
42124;SDS011;27787;44.594;11.046;2024-02-28T07:49:35;59.80;;;14.90;;
42124;SDS011;27787;44.594;11.046;2024-02-28T07:52:19;54.30;;;13.90;;
42124;SDS011;27787;44.594;11.046;2024-02-28T07:55:04;45.03;;;12.85;;
42124;SDS011;27787;44.594;11.046;2024-02-28T07:57:53;33.88;;;12.57;;
42124;SDS011;27787;44.594;11.046;2024-02-28T08:00:37;40.85;;;11.77;;
42124;SDS011;27787;44.594;11.046;2024-02-28T08:03:22;41.85;;;11.75;;
42124;SDS011;27787;44.594;11.046;2024-02-28T08:06:06;55.22;;;12.98;;
42124;SDS011;27787;44.594;11.046;2024-02-28T08:08:52;58.05;;;12.55;;
42124;SDS011;27787;44.594;11.046;2024-02-28T08:11:36;38.17;;;10.57;;
42124;SDS011;27787;44.594;11.046;2024-02-28T08:14:21;48.40;;;13.32;;
42124;SDS011;27787;44.594;11.046;2024-02-28T08:17:05;50.90;;;12.93;;
42124;SDS011;27787;44.594;11.046;2024-02-28T08:19:49;57.42;;;14.30;;
42124;SDS011;27787;44.594;11.046;2024-02-28T08:22:33;53.13;;;15.23;;
42124;SDS011;27787;44.594;11.046;2024-02-28T08:25:18;61.10;;;13.60;;
42124;SDS011;27787;44.594;11.046;2024-02-28T08:28:03;56.55;;;16.48;;
42124;SDS011;27787;44.594;11.046;2024-02-28T08:30:48;46.25;;;14.57;;
42124;SDS011;27787;44.594;11.046;2024-02-28T08:33:32;37.65;;;12.98;;
42124;SDS011;27787;44.594;11.046;2024-02-28T08:36:17;46.75;;;13.32;;
42124;SDS011;27787;44.594;11.046;2024-02-28T08:39:00;48.72;;;11.43;;
42124;SDS011;27787;44.594;11.046;2024-02-28T08:41:45;37.83;;;12.63;;
42124;SDS011;27787;44.594;11.046;2024-02-28T08:44:30;36.97;;;12.00;;
42124;SDS011;27787;44.594;11.046;2024-02-28T08:47:14;33.08;;;11.35;;
42124;SDS011;27787;44.594;11.046;2024-02-28T08:49:59;34.60;;;10.40;;
42124;SDS011;27787;44.594;11.046;2024-02-28T08:52:43;28.10;;;10.00;;
42124;SDS011;27787;44.594;11.046;2024-02-28T08:55:27;26.98;;;8.48;;
42124;SDS011;27787;44.594;11.046;2024-02-28T08:58:12;24.83;;;8.50;;
42124;SDS011;27787;44.594;11.046;2024-02-28T09:00:56;26.90;;;8.82;;
42124;SDS011;27787;44.594;11.046;2024-02-28T09:03:40;26.10;;;9.45;;
42124;SDS011;27787;44.594;11.046;2024-02-28T09:06:25;31.58;;;9.05;;
42124;SDS011;27787;44.594;11.046;2024-02-28T09:09:10;26.53;;;8.63;;
42124;SDS011;27787;44.594;11.046;2024-02-28T09:11:54;34.50;;;12.98;;
42124;SDS011;27787;44.594;11.046;2024-02-28T09:14:38;61.20;;;17.20;;
42124;SDS011;27787;44.594;11.046;2024-02-28T09:17:23;65.78;;;18.17;;
42124;SDS011;27787;44.594;11.046;2024-02-28T09:20:07;59.45;;;17.52;;
42124;SDS011;27787;44.594;11.046;2024-02-28T09:22:53;65.75;;;18.70;;
42124;SDS011;27787;44.594;11.046;2024-02-28T09:25:38;54.37;;;16.57;;
42124;SDS011;27787;44.594;11.046;2024-02-28T09:28:22;52.53;;;18.73;;
42124;SDS011;27787;44.594;11.046;2024-02-28T09:31:08;47.65;;;18.83;;
42124;SDS011;27787;44.594;11.046;2024-02-28T09:33:52;53.67;;;18.85;;
42124;SDS011;27787;44.594;11.046;2024-02-28T09:36:41;59.05;;;18.52;;
42124;SDS011;27787;44.594;11.046;2024-02-28T09:39:27;60.28;;;18.58;;
42124;SDS011;27787;44.594;11.046;2024-02-28T09:42:12;62.27;;;17.80;;
42124;SDS011;27787;44.594;11.046;2024-02-28T09:44:59;53.08;;;18.42;;
42124;SDS011;27787;44.594;11.046;2024-02-28T09:47:45;52.75;;;15.65;;
42124;SDS011;27787;44.594;11.046;2024-02-28T09:50:30;51.67;;;16.40;;
42124;SDS011;27787;44.594;11.046;2024-02-28T09:53:14;43.60;;;14.73;;
42124;SDS011;27787;44.594;11.046;2024-02-28T09:55:58;49.70;;;16.27;;
42124;SDS011;27787;44.594;11.046;2024-02-28T09:58:43;48.85;;;16.67;;
42124;SDS011;27787;44.594;11.046;2024-02-28T10:01:27;42.42;;;14.32;;
42124;SDS011;27787;44.594;11.046;2024-02-28T10:04:13;43.58;;;15.40;;
42124;SDS011;27787;44.594;11.046;2024-02-28T10:06:59;52.00;;;17.50;;
42124;SDS011;27787;44.594;11.046;2024-02-28T10:09:56;42.17;;;16.05;;
42124;SDS011;27787;44.594;11.046;2024-02-28T10:12:44;46.33;;;17.25;;
42124;SDS011;27787;44.594;11.046;2024-02-28T10:15:28;42.08;;;16.13;;
42124;SDS011;27787;44.594;11.046;2024-02-28T10:18:12;45.58;;;16.58;;
42124;SDS011;27787;44.594;11.046;2024-02-28T10:20:56;46.83;;;17.90;;
42124;SDS011;27787;44.594;11.046;2024-02-28T10:23:41;46.95;;;15.95;;
42124;SDS011;27787;44.594;11.046;2024-02-28T10:26:25;41.65;;;15.45;;
42124;SDS011;27787;44.594;11.046;2024-02-28T10:29:10;42.78;;;16.60;;
42124;SDS011;27787;44.594;11.046;2024-02-28T10:31:57;41.75;;;15.73;;
42124;SDS011;27787;44.594;11.046;2024-02-28T10:34:41;37.70;;;15.77;;
42124;SDS011;27787;44.594;11.046;2024-02-28T10:37:28;36.25;;;15.38;;
42124;SDS011;27787;44.594;11.046;2024-02-28T10:40:15;46.45;;;15.95;;
42124;SDS011;27787;44.594;11.046;2024-02-28T10:43:01;38.40;;;15.93;;
42124;SDS011;27787;44.594;11.046;2024-02-28T10:45:47;42.13;;;14.82;;
42124;SDS011;27787;44.594;11.046;2024-02-28T10:48:32;30.00;;;13.57;;
42124;SDS011;27787;44.594;11.046;2024-02-28T10:51:16;32.40;;;12.90;;
42124;SDS011;27787;44.594;11.046;2024-02-28T10:56:53;36.20;;;13.95;;
42124;SDS011;27787;44.594;11.046;2024-02-28T10:59:38;27.45;;;12.73;;
42124;SDS011;27787;44.594;11.046;2024-02-28T11:02:27;24.33;;;10.75;;
42124;SDS011;27787;44.594;11.046;2024-02-28T11:05:12;27.15;;;11.45;;
42124;SDS011;27787;44.594;11.046;2024-02-28T11:07:56;23.40;;;10.90;;
42124;SDS011;27787;44.594;11.046;2024-02-28T11:10:40;24.60;;;11.82;;
42124;SDS011;27787;44.594;11.046;2024-02-28T11:13:27;20.30;;;10.60;;
42124;SDS011;27787;44.594;11.046;2024-02-28T11:16:11;22.83;;;10.07;;
42124;SDS011;27787;44.594;11.046;2024-02-28T11:18:56;20.10;;;8.82;;
42124;SDS011;27787;44.594;11.046;2024-02-28T11:21:40;18.55;;;9.35;;
42124;SDS011;27787;44.594;11.046;2024-02-28T11:24:27;20.13;;;9.20;;
42124;SDS011;27787;44.594;11.046;2024-02-28T11:27:14;17.52;;;9.15;;
42124;SDS011;27787;44.594;11.046;2024-02-28T11:29:59;20.30;;;9.73;;
42124;SDS011;27787;44.594;11.046;2024-02-28T11:32:44;16.27;;;8.25;;
42124;SDS011;27787;44.594;11.046;2024-02-28T11:35:29;16.27;;;8.80;;
42124;SDS011;27787;44.594;11.046;2024-02-28T11:38:13;18.63;;;8.73;;
42124;SDS011;27787;44.594;11.046;2024-02-28T11:40:58;18.85;;;8.52;;
42124;SDS011;27787;44.594;11.046;2024-02-28T11:43:43;14.63;;;7.95;;
42124;SDS011;27787;44.594;11.046;2024-02-28T11:46:27;15.13;;;8.18;;
42124;SDS011;27787;44.594;11.046;2024-02-28T11:49:12;13.13;;;6.70;;
42124;SDS011;27787;44.594;11.046;2024-02-28T11:51:57;10.53;;;5.80;;
42124;SDS011;27787;44.594;11.046;2024-02-28T11:54:41;11.93;;;6.20;;
42124;SDS011;27787;44.594;11.046;2024-02-28T11:57:28;15.55;;;6.07;;
42124;SDS011;27787;44.594;11.046;2024-02-28T12:00:14;14.05;;;7.13;;
42124;SDS011;27787;44.594;11.046;2024-02-28T12:03:05;11.63;;;5.38;;
42124;SDS011;27787;44.594;11.046;2024-02-28T12:05:51;7.50;;;4.03;;
42124;SDS011;27787;44.594;11.046;2024-02-28T12:08:36;7.80;;;4.63;;
42124;SDS011;27787;44.594;11.046;2024-02-28T12:11:20;7.68;;;3.60;;
42124;SDS011;27787;44.594;11.046;2024-02-28T12:14:04;11.38;;;3.67;;
42124;SDS011;27787;44.594;11.046;2024-02-28T12:16:52;8.35;;;4.15;;
42124;SDS011;27787;44.594;11.046;2024-02-28T12:19:37;7.53;;;3.72;;
42124;SDS011;27787;44.594;11.046;2024-02-28T12:22:23;10.77;;;4.57;;
42124;SDS011;27787;44.594;11.046;2024-02-28T12:25:07;9.05;;;4.68;;
42124;SDS011;27787;44.594;11.046;2024-02-28T12:27:52;9.63;;;3.50;;
42124;SDS011;27787;44.594;11.046;2024-02-28T12:30:41;8.83;;;3.97;;
42124;SDS011;27787;44.594;11.046;2024-02-28T12:33:28;13.48;;;5.15;;
42124;SDS011;27787;44.594;11.046;2024-02-28T12:36:13;9.82;;;5.03;;
42124;SDS011;27787;44.594;11.046;2024-02-28T12:38:58;9.95;;;4.78;;
42124;SDS011;27787;44.594;11.046;2024-02-28T12:41:43;9.13;;;5.07;;
42124;SDS011;27787;44.594;11.046;2024-02-28T12:44:27;9.80;;;4.55;;
42124;SDS011;27787;44.594;11.046;2024-02-28T12:47:12;10.10;;;4.60;;
42124;SDS011;27787;44.594;11.046;2024-02-28T12:49:55;9.10;;;4.50;;
42124;SDS011;27787;44.594;11.046;2024-02-28T12:52:40;10.23;;;4.68;;
42124;SDS011;27787;44.594;11.046;2024-02-28T12:55:24;9.35;;;5.03;;
42124;SDS011;27787;44.594;11.046;2024-02-28T12:58:08;7.40;;;4.07;;
42124;SDS011;27787;44.594;11.046;2024-02-28T13:00:53;9.85;;;4.00;;
42124;SDS011;27787;44.594;11.046;2024-02-28T13:03:37;8.07;;;4.15;;
42124;SDS011;27787;44.594;11.046;2024-02-28T13:06:21;7.80;;;3.83;;
42124;SDS011;27787;44.594;11.046;2024-02-28T13:09:05;10.88;;;4.30;;
42124;SDS011;27787;44.594;11.046;2024-02-28T13:11:56;11.20;;;3.80;;
42124;SDS011;27787;44.594;11.046;2024-02-28T13:14:40;7.63;;;3.53;;
42124;SDS011;27787;44.594;11.046;2024-02-28T13:17:24;7.25;;;3.15;;
42124;SDS011;27787;44.594;11.046;2024-02-28T13:20:09;10.15;;;4.00;;
42124;SDS011;27787;44.594;11.046;2024-02-28T13:22:53;8.18;;;3.50;;
42124;SDS011;27787;44.594;11.046;2024-02-28T13:25:37;13.57;;;3.67;;
42124;SDS011;27787;44.594;11.046;2024-02-28T13:28:21;11.93;;;3.35;;
42124;SDS011;27787;44.594;11.046;2024-02-28T13:31:14;10.63;;;3.55;;
42124;SDS011;27787;44.594;11.046;2024-02-28T13:33:59;9.25;;;3.30;;
42124;SDS011;27787;44.594;11.046;2024-02-28T13:36:44;6.72;;;3.20;;
42124;SDS011;27787;44.594;11.046;2024-02-28T13:39:29;12.82;;;3.80;;
42124;SDS011;27787;44.594;11.046;2024-02-28T13:42:13;13.18;;;3.25;;
42124;SDS011;27787;44.594;11.046;2024-02-28T13:44:58;6.38;;;2.88;;
42124;SDS011;27787;44.594;11.046;2024-02-28T13:47:42;13.50;;;3.22;;
42124;SDS011;27787;44.594;11.046;2024-02-28T13:50:26;6.05;;;3.25;;
42124;SDS011;27787;44.594;11.046;2024-02-28T13:53:15;13.00;;;2.90;;
42124;SDS011;27787;44.594;11.046;2024-02-28T13:55:59;11.13;;;3.25;;
42124;SDS011;27787;44.594;11.046;2024-02-28T13:58:44;10.02;;;3.08;;
42124;SDS011;27787;44.594;11.046;2024-02-28T14:01:28;10.55;;;2.40;;
42124;SDS011;27787;44.594;11.046;2024-02-28T14:04:13;5.60;;;2.25;;
42124;SDS011;27787;44.594;11.046;2024-02-28T14:06:57;14.35;;;3.28;;
42124;SDS011;27787;44.594;11.046;2024-02-28T14:09:42;14.85;;;3.10;;
42124;SDS011;27787;44.594;11.046;2024-02-28T14:12:28;15.00;;;4.20;;
42124;SDS011;27787;44.594;11.046;2024-02-28T14:15:13;12.45;;;4.00;;
42124;SDS011;27787;44.594;11.046;2024-02-28T14:17:57;15.43;;;4.47;;
42124;SDS011;27787;44.594;11.046;2024-02-28T14:20:41;16.77;;;4.05;;
42124;SDS011;27787;44.594;11.046;2024-02-28T14:23:26;9.30;;;4.05;;
42124;SDS011;27787;44.594;11.046;2024-02-28T14:26:10;16.42;;;4.03;;
42124;SDS011;27787;44.594;11.046;2024-02-28T14:28:54;10.27;;;3.42;;
42124;SDS011;27787;44.594;11.046;2024-02-28T14:31:39;7.45;;;3.70;;
42124;SDS011;27787;44.594;11.046;2024-02-28T14:34:24;7.40;;;2.92;;
42124;SDS011;27787;44.594;11.046;2024-02-28T14:37:08;6.25;;;2.70;;
42124;SDS011;27787;44.594;11.046;2024-02-28T14:39:51;10.23;;;3.35;;
42124;SDS011;27787;44.594;11.046;2024-02-28T14:42:36;8.38;;;2.63;;
42124;SDS011;27787;44.594;11.046;2024-02-28T14:45:20;10.47;;;2.60;;
42124;SDS011;27787;44.594;11.046;2024-02-28T14:48:05;7.70;;;2.45;;
42124;SDS011;27787;44.594;11.046;2024-02-28T14:50:50;4.37;;;2.23;;
42124;SDS011;27787;44.594;11.046;2024-02-28T14:53:34;5.68;;;2.03;;
42124;SDS011;27787;44.594;11.046;2024-02-28T14:56:18;7.95;;;2.53;;
42124;SDS011;27787;44.594;11.046;2024-02-28T14:59:03;11.27;;;2.90;;
42124;SDS011;27787;44.594;11.046;2024-02-28T15:01:49;4.60;;;2.33;;
42124;SDS011;27787;44.594;11.046;2024-02-28T15:04:34;15.80;;;2.65;;
42124;SDS011;27787;44.594;11.046;2024-02-28T15:07:18;11.10;;;2.88;;
42124;SDS011;27787;44.594;11.046;2024-02-28T15:10:03;8.68;;;3.03;;
42124;SDS011;27787;44.594;11.046;2024-02-28T15:12:49;12.20;;;3.70;;
42124;SDS011;27787;44.594;11.046;2024-02-28T15:15:34;8.07;;;2.80;;
42124;SDS011;27787;44.594;11.046;2024-02-28T15:18:18;6.78;;;3.28;;
42124;SDS011;27787;44.594;11.046;2024-02-28T15:21:03;12.57;;;3.30;;
42124;SDS011;27787;44.594;11.046;2024-02-28T15:23:47;14.60;;;3.72;;
42124;SDS011;27787;44.594;11.046;2024-02-28T15:26:32;9.38;;;3.17;;
42124;SDS011;27787;44.594;11.046;2024-02-28T15:29:16;12.02;;;2.75;;
42124;SDS011;27787;44.594;11.046;2024-02-28T15:32:01;8.40;;;2.33;;
42124;SDS011;27787;44.594;11.046;2024-02-28T15:34:46;10.15;;;2.65;;
42124;SDS011;27787;44.594;11.046;2024-02-28T15:37:30;10.05;;;3.55;;
42124;SDS011;27787;44.594;11.046;2024-02-28T15:40:14;5.32;;;2.35;;
42124;SDS011;27787;44.594;11.046;2024-02-28T15:43:00;8.32;;;2.50;;
42124;SDS011;27787;44.594;11.046;2024-02-28T15:45:44;11.25;;;3.05;;
42124;SDS011;27787;44.594;11.046;2024-02-28T15:48:28;7.60;;;2.70;;
42124;SDS011;27787;44.594;11.046;2024-02-28T15:51:13;9.10;;;2.88;;
42124;SDS011;27787;44.594;11.046;2024-02-28T15:53:57;7.35;;;3.33;;
42124;SDS011;27787;44.594;11.046;2024-02-28T15:56:42;6.47;;;3.00;;
42124;SDS011;27787;44.594;11.046;2024-02-28T15:59:27;15.63;;;6.13;;